Bow Island Climate, Alberta

Past 24 Hour Conditions

This table is a summary of hourly weather conditions for the past 24 hours. This summary includes the following parameters: temperature, humidity, dew point, wind speed and direction, air pressure, visibility and/or wind chill and humidex.
Date / Time
(MDT)
Conditions Temp (°F) Humidity (%) Dew Point (°F) Wind (mph) Pressure (inches) Visibility (miles)
02 September 2014
18:00 N/A 69 43 45 NNE 10 N/A N/A
17:00 N/A 69 37 42 NW 9 N/A N/A
16:00 N/A 71 33 40 WNW 13 N/A N/A
15:00 N/A 72   35 43 WSW 9 N/A N/A
14:00 N/A 70 36 42 W 8 N/A N/A
13:00 N/A 70 35 42 WNW 17 N/A N/A
12:00 N/A 68 39 43 WNW 14 N/A N/A
11:00 N/A 68 41 43 WNW 11 gust 18 N/A N/A
10:00 N/A 62 60 48 SW 4 N/A N/A
9:00 N/A 57 63 45 SW 5 N/A N/A
8:00 N/A 50 78 44 S 6 N/A N/A
7:00 N/A 50 78 43 SW 4 N/A N/A
6:00 N/A 46 87 42 S 4 N/A N/A
5:00 N/A 45   89 42 S 3 N/A N/A
4:00 N/A 46 87 42 SW 2 N/A N/A
3:00 N/A 46 83 42 SSW 2 N/A N/A
2:00 N/A 49 77 42 NE 4 N/A N/A
1:00 N/A 52 69 42 WNW 5 N/A N/A
00:00 N/A 56 59 42 NW 8 N/A N/A
01 September 2014
23:00 N/A 58 53 41 W 14 gust 19 N/A N/A
22:00 N/A 60 50 41 W 15 gust 23 N/A N/A
21:00 N/A 61 46 41 W 16 gust 22 N/A N/A
20:00 N/A 64 43 41 W 16 gust 31 N/A N/A
19:00 N/A 70 36 41 WSW 11 N/A N/A
18:00 N/A 71 31 39 WSW 9 N/A N/A
N/A
Not available
 ↑ 
Highest temperature
 ↓ 
Lowest temperature

If you require additional historical weather information, please visit Climate Data Online.